Time;durP1;ratioP1;P1;durP2;ratioP2;P2;SDS_P1;SDS_P2;PMS_P1;PMS_P2;Temp;Humidity;BMP_temperature;BMP_pressure;BME280_temperature;BME280_humidity;BME280_pressure;Samples;Min_cycle;Max_cycle;Signal;HPM_P1;HPM_P2
2022/03/15 00:02:22;;;;;;;1.30;1.20;;;14.50;99.90;;;;;;5016685;28;20054;-75
2022/03/15 00:04:48;;;;;;;2.33;1.67;;;14.50;99.90;;;;;;5017042;28;20038;-75
2022/03/15 00:07:15;;;;;;;0.63;0.50;;;14.40;99.90;;;;;;5017017;28;20104;-75
2022/03/15 00:09:42;;;;;;;1.02;1.02;;;14.30;99.90;;;;;;5016961;28;20193;-75
2022/03/15 00:12:09;;;;;;;1.38;0.93;;;14.20;99.90;;;;;;5017009;28;20050;-75
2022/03/15 00:14:37;;;;;;;1.05;0.88;;;14.10;99.90;;;;;;5016482;28;20586;-75
2022/03/15 00:17:05;;;;;;;0.57;0.57;;;13.90;99.90;;;;;;5016638;28;20133;-75
2022/03/15 00:19:32;;;;;;;1.65;1.23;;;13.80;99.90;;;;;;5016697;28;20489;-75
2022/03/15 00:21:58;;;;;;;0.65;0.65;;;13.70;99.90;;;;;;5016856;28;20042;-75
2022/03/15 00:24:24;;;;;;;9.73;1.13;;;13.60;99.90;;;;;;5016851;28;20037;-75
2022/03/15 00:26:50;;;;;;;1.42;1.33;;;13.60;99.90;;;;;;5016808;28;20435;-75
2022/03/15 00:29:18;;;;;;;0.20;0.20;;;13.50;99.90;;;;;;5016682;28;20125;-75
2022/03/15 00:31:46;;;;;;;4.35;1.65;;;13.50;99.90;;;;;;4998905;28;20403;-75
2022/03/15 00:34:12;;;;;;;1.35;1.25;;;13.40;99.90;;;;;;5016502;28;20115;-75
2022/03/15 00:36:38;;;;;;;11.65;1.33;;;13.40;99.90;;;;;;5016534;28;20484;-75
2022/03/15 00:39:05;;;;;;;1.25;1.15;;;13.40;99.90;;;;;;5016663;28;20064;-75
2022/03/15 00:41:31;;;;;;;2.75;2.20;;;13.40;99.90;;;;;;5016369;28;20044;-75
2022/03/15 00:43:57;;;;;;;0.43;0.43;;;13.40;99.90;;;;;;5015082;28;20516;-75
2022/03/15 00:46:23;;;;;;;0.60;0.60;;;13.30;99.90;;;;;;5016092;28;20069;-75
2022/03/15 00:48:48;;;;;;;1.55;1.23;;;13.30;99.90;;;;;;5015885;28;20500;-75
2022/03/15 00:51:14;;;;;;;0.63;0.35;;;13.30;99.90;;;;;;5016222;28;20054;-74
2022/03/15 00:53:40;;;;;;;8.18;2.83;;;13.30;99.90;;;;;;5016089;28;20048;-75
2022/03/15 00:56:07;;;;;;;1.65;1.45;;;13.20;99.90;;;;;;5015786;28;20452;-75
2022/03/15 00:58:33;;;;;;;3.33;1.27;;;13.20;99.90;;;;;;5015879;28;20392;-75
2022/03/15 01:00:59;;;;;;;3.88;1.40;;;13.20;99.90;;;;;;5015548;28;20081;-74
2022/03/15 01:03:25;;;;;;;1.08;1.00;;;13.10;99.90;;;;;;5016258;28;20080;-75
2022/03/15 01:05:51;;;;;;;0.43;0.43;;;13.10;99.90;;;;;;5016375;28;20045;-74
2022/03/15 01:08:17;;;;;;;1.48;1.45;;;13.00;99.90;;;;;;5015860;28;20046;-74
2022/03/15 01:10:43;;;;;;;0.80;0.80;;;13.00;99.90;;;;;;5015817;28;20050;-75
2022/03/15 01:13:10;;;;;;;0.77;0.77;;;12.90;99.90;;;;;;5016330;28;20057;-74
2022/03/15 01:15:42;;;;;;;2.65;1.73;;;12.90;99.90;;;;;;5015532;28;20034;-75
2022/03/15 01:18:09;;;;;;;3.05;1.35;;;12.90;99.90;;;;;;5015925;28;20070;-75
2022/03/15 01:20:37;;;;;;;1.27;1.17;;;12.80;99.90;;;;;;5015288;28;20121;-75
2022/03/15 01:23:03;;;;;;;0.93;0.93;;;12.80;99.90;;;;;;5015572;28;20057;-75
2022/03/15 01:25:30;;;;;;;0.73;0.63;;;12.70;99.90;;;;;;5015232;28;20041;-75
2022/03/15 01:27:56;;;;;;;1.17;1.17;;;12.70;99.90;;;;;;5015155;28;20041;-75
2022/03/15 01:30:22;;;;;;;1.10;0.40;;;12.70;99.90;;;;;;5015415;28;20025;-75
2022/03/15 01:32:48;;;;;;;1.02;1.02;;;12.60;99.90;;;;;;5015356;28;20049;-75
2022/03/15 01:35:15;;;;;;;0.93;0.93;;;12.50;99.90;;;;;;5015382;28;20049;-75
2022/03/15 01:37:40;;;;;;;0.28;0.28;;;12.50;99.90;;;;;;5013815;28;20040;-75
2022/03/15 01:40:07;;;;;;;0.32;0.32;;;12.40;99.90;;;;;;5015015;28;20033;-75
2022/03/15 01:42:33;;;;;;;0.68;0.68;;;12.30;99.90;;;;;;5014920;28;20050;-74
2022/03/15 01:45:03;;;;;;;0.57;0.57;;;12.30;99.90;;;;;;5015306;28;20048;-75
2022/03/15 01:47:29;;;;;;;0.77;0.65;;;12.20;99.90;;;;;;5014825;28;20046;-74
2022/03/15 01:49:55;;;;;;;2.22;1.55;;;12.20;99.90;;;;;;5014865;28;20044;-75
2022/03/15 01:52:21;;;;;;;0.30;0.30;;;12.10;99.90;;;;;;5015415;28;20049;-75
2022/03/15 01:54:47;;;;;;;1.08;1.08;;;12.10;99.90;;;;;;5014856;28;20034;-75
2022/03/15 01:57:13;;;;;;;0.65;0.43;;;11.70;99.90;;;;;;5015047;28;20046;-75
2022/03/15 01:59:40;;;;;;;1.05;1.05;;;11.70;99.90;;;;;;5015311;28;20141;-75
2022/03/15 02:02:06;;;;;;;4.10;1.85;;;11.70;99.90;;;;;;4996711;28;20111;-75
2022/03/15 02:04:33;;;;;;;0.20;0.20;;;11.70;99.90;;;;;;5015400;28;20042;-75
2022/03/15 02:07:04;;;;;;;0.45;0.45;;;11.70;99.90;;;;;;5015204;28;20072;-75
2022/03/15 02:09:30;;;;;;;0.30;0.30;;;11.70;99.90;;;;;;5014623;28;20045;-75
2022/03/15 02:11:57;;;;;;;0.75;0.75;;;11.70;99.90;;;;;;5014856;28;20509;-74
2022/03/15 02:14:22;;;;;;;0.50;0.50;;;11.60;99.90;;;;;;5015065;28;20088;-74
2022/03/15 02:16:48;;;;;;;5.82;2.28;;;11.60;99.90;;;;;;5014650;28;20132;-75
2022/03/15 02:19:14;;;;;;;0.60;0.60;;;11.60;99.90;;;;;;5014501;28;20034;-75
2022/03/15 02:21:40;;;;;;;0.30;0.30;;;11.60;99.90;;;;;;5014784;28;20042;-75
2022/03/15 02:24:06;;;;;;;0.30;0.30;;;11.60;99.90;;;;;;5014657;28;20178;-75
2022/03/15 02:26:32;;;;;;;0.90;0.90;;;11.50;99.90;;;;;;5014405;28;20097;-74
2022/03/15 02:28:58;;;;;;;1.00;0.82;;;11.60;99.90;;;;;;5014525;28;20033;-75
2022/03/15 02:31:24;;;;;;;0.20;0.20;;;11.50;99.90;;;;;;5014504;28;20045;-75
2022/03/15 02:33:51;;;;;;;0.70;0.70;;;11.50;99.90;;;;;;5014612;28;20040;-75
2022/03/15 02:36:17;;;;;;;0.57;0.57;;;11.50;99.90;;;;;;5014595;28;20044;-75
2022/03/15 02:38:44;;;;;;;0.55;0.55;;;11.50;99.90;;;;;;5014594;28;20072;-75
2022/03/15 02:41:10;;;;;;;0.63;0.63;;;11.50;99.90;;;;;;5014664;28;20514;-75
2022/03/15 02:43:36;;;;;;;2.83;0.68;;;11.50;99.90;;;;;;5014155;28;20038;-75
2022/03/15 02:46:02;;;;;;;5.50;2.17;;;11.40;99.90;;;;;;5014108;28;20037;-75
2022/03/15 02:48:28;;;;;;;0.43;0.43;;;11.40;99.90;;;;;;5014751;28;20045;-75
2022/03/15 02:50:55;;;;;;;0.25;0.25;;;11.40;99.90;;;;;;5014514;28;20099;-75
2022/03/15 02:53:21;;;;;;;0.28;0.28;;;11.50;99.90;;;;;;5014912;28;20499;-75
2022/03/15 02:55:46;;;;;;;0.47;0.47;;;11.50;99.90;;;;;;5014135;28;20042;-75
2022/03/15 02:58:12;;;;;;;0.38;0.38;;;11.40;99.90;;;;;;4997076;28;20526;-75
2022/03/15 03:00:39;;;;;;;0.30;0.30;;;11.40;99.90;;;;;;5013964;28;20065;-75
2022/03/15 03:03:05;;;;;;;0.25;0.25;;;11.40;99.90;;;;;;5014966;28;20068;-75
2022/03/15 03:05:30;;;;;;;0.13;0.13;;;11.40;99.90;;;;;;5014463;28;20045;-75
2022/03/15 03:07:56;;;;;;;0.47;0.47;;;11.40;99.90;;;;;;5016457;28;20030;-75
2022/03/15 03:10:22;;;;;;;10.18;1.95;;;11.40;99.90;;;;;;5018216;28;20045;-75
2022/03/15 03:12:49;;;;;;;0.30;0.30;;;11.40;99.90;;;;;;5018257;28;20046;-75
2022/03/15 03:15:20;;;;;;;0.77;0.77;;;11.40;99.90;;;;;;5017810;28;20128;-75
2022/03/15 03:17:46;;;;;;;0.47;0.47;;;11.40;99.90;;;;;;5018085;28;20073;-74
2022/03/15 03:20:14;;;;;;;0.30;0.30;;;11.40;99.90;;;;;;5017894;28;20069;-75
2022/03/15 03:22:41;;;;;;;0.95;0.95;;;11.40;99.90;;;;;;5018158;28;20076;-75
2022/03/15 03:25:07;;;;;;;0.30;0.30;;;11.40;99.90;;;;;;5018042;28;20042;-75
2022/03/15 03:27:33;;;;;;;0.50;0.50;;;11.40;99.90;;;;;;5018003;28;20113;-75
2022/03/15 03:30:00;;;;;;;0.82;0.80;;;11.40;99.90;;;;;;5017959;28;20488;-75
2022/03/15 03:32:26;;;;;;;0.98;0.75;;;11.40;99.90;;;;;;5018447;28;20052;-75
2022/03/15 03:34:53;;;;;;;1.33;1.13;;;11.40;99.90;;;;;;5017646;28;20050;-75
2022/03/15 03:37:19;;;;;;;0.40;0.40;;;11.40;99.90;;;;;;5017568;28;20041;-75
2022/03/15 03:39:45;;;;;;;0.20;0.20;;;11.30;99.90;;;;;;5017790;28;20503;-75
2022/03/15 03:42:12;;;;;;;2.90;1.60;;;11.30;99.90;;;;;;5017744;28;20045;-75
2022/03/15 03:44:40;;;;;;;0.70;0.70;;;11.30;99.90;;;;;;5018178;28;20128;-75
2022/03/15 03:47:06;;;;;;;6.07;1.85;;;11.30;99.90;;;;;;5017141;28;20030;-75
2022/03/15 03:49:32;;;;;;;1.20;1.10;;;11.30;99.90;;;;;;5017552;28;20038;-75
2022/03/15 03:51:59;;;;;;;0.40;0.40;;;11.30;99.90;;;;;;5018155;28;20384;-75
2022/03/15 03:54:26;;;;;;;9.05;1.75;;;11.30;99.90;;;;;;5017568;28;20049;-75
2022/03/15 03:56:52;;;;;;;1.10;1.08;;;11.30;99.90;;;;;;5017219;28;20116;-75
2022/03/15 03:59:18;;;;;;;0.50;0.50;;;11.30;99.90;;;;;;5017727;28;20037;-75
2022/03/15 04:01:44;;;;;;;0.98;0.63;;;11.20;99.90;;;;;;5016938;28;20065;-75
2022/03/15 04:04:10;;;;;;;1.17;0.65;;;11.20;99.90;;;;;;5017351;28;20069;-75
2022/03/15 04:06:38;;;;;;;0.60;0.60;;;11.20;99.90;;;;;;5017349;28;20129;-75
2022/03/15 04:09:05;;;;;;;3.42;0.95;;;11.20;99.90;;;;;;5017283;28;20065;-75
2022/03/15 04:11:31;;;;;;;0.82;0.80;;;11.20;99.90;;;;;;5016816;28;20092;-75
2022/03/15 04:14:01;;;;;;;0.30;0.30;;;11.10;99.90;;;;;;5017218;28;20124;-75
2022/03/15 04:16:27;;;;;;;1.03;0.50;;;11.10;99.90;;;;;;5016617;28;20554;-75
2022/03/15 04:18:53;;;;;;;1.38;1.27;;;11.10;99.90;;;;;;5017277;28;20473;-75
2022/03/15 04:21:24;;;;;;;0.10;0.10;;;11.10;99.90;;;;;;5016848;28;20104;-75
2022/03/15 04:23:51;;;;;;;0.50;0.50;;;11.00;99.90;;;;;;5017501;28;20457;-75
2022/03/15 04:26:17;;;;;;;0.20;0.20;;;11.00;99.90;;;;;;5016704;28;20515;-74
2022/03/15 04:28:43;;;;;;;0.60;0.60;;;11.00;99.90;;;;;;5016921;28;20037;-75
2022/03/15 04:31:09;;;;;;;0.90;0.90;;;11.00;99.90;;;;;;5016539;28;20042;-75
2022/03/15 04:33:34;;;;;;;0.50;0.50;;;11.00;99.90;;;;;;5017342;28;20080;-75
2022/03/15 04:36:00;;;;;;;0.30;0.30;;;11.00;99.90;;;;;;5016491;28;20041;-75
2022/03/15 04:38:27;;;;;;;0.82;0.68;;;10.90;99.90;;;;;;5016700;28;20048;-75
2022/03/15 04:40:52;;;;;;;1.15;0.40;;;11.00;99.90;;;;;;5016798;28;20034;-75
2022/03/15 04:43:18;;;;;;;1.13;1.02;;;10.80;99.90;;;;;;5017165;28;20448;-75
2022/03/15 04:45:44;;;;;;;0.35;0.17;;;10.80;99.90;;;;;;5016166;28;20038;-75
2022/03/15 04:48:10;;;;;;;1.65;1.45;;;10.80;99.90;;;;;;5016530;28;20128;-75
2022/03/15 04:50:36;;;;;;;0.63;0.63;;;10.80;99.90;;;;;;5016703;28;20069;-75
2022/03/15 04:53:02;;;;;;;0.40;0.40;;;10.70;99.90;;;;;;5016373;28;20488;-75
2022/03/15 04:55:27;;;;;;;1.70;0.60;;;10.70;99.90;;;;;;5016124;28;20516;-75
2022/03/15 04:57:53;;;;;;;0.32;0.32;;;10.70;99.90;;;;;;5016379;28;20042;-75
2022/03/15 05:00:19;;;;;;;2.47;1.95;;;10.70;99.90;;;;;;5016155;28;20563;-74
2022/03/15 05:02:45;;;;;;;0.60;0.60;;;10.70;99.90;;;;;;5015777;28;20062;-76
2022/03/15 05:05:14;;;;;;;0.25;0.25;;;10.70;99.90;;;;;;5015928;28;20034;-74
2022/03/15 05:07:40;;;;;;;0.50;0.50;;;10.60;99.90;;;;;;5015511;28;20038;-74
2022/03/15 05:12:50;;;;;;;0.43;0.43;;;10.70;99.90;;;;;;5015251;28;20052;-74
2022/03/15 05:15:17;;;;;;;0.45;0.28;;;10.70;99.90;;;;;;5013997;28;20045;-75
2022/03/15 05:17:43;;;;;;;1.25;1.15;;;10.70;99.90;;;;;;5015980;28;20121;-74
2022/03/15 05:20:18;;;;;;;1.40;1.27;;;10.70;99.90;;;;;;4990007;28;20038;-75
2022/03/15 05:22:44;;;;;;;1.38;1.17;;;10.70;99.90;;;;;;5013900;28;20076;-75
2022/03/15 05:25:13;;;;;;;0.98;0.98;;;10.80;99.90;;;;;;5013212;28;20034;-75
2022/03/15 05:27:40;;;;;;;1.13;1.13;;;10.70;99.90;;;;;;5009151;28;20054;-76
2022/03/15 05:30:13;;;;;;;0.82;0.82;;;10.70;99.90;;;;;;5008562;28;20099;-74
2022/03/15 05:32:39;;;;;;;0.45;0.45;;;10.70;99.90;;;;;;5015165;28;20053;-75
2022/03/15 05:35:08;;;;;;;0.35;0.35;;;10.70;99.90;;;;;;5008339;28;20049;-74
2022/03/15 05:37:34;;;;;;;1.75;1.25;;;10.70;99.90;;;;;;5013730;28;20037;-76
2022/03/15 05:40:00;;;;;;;0.43;0.43;;;10.60;99.90;;;;;;4994258;28;20044;-76
2022/03/15 05:42:26;;;;;;;0.30;0.30;;;10.60;99.90;;;;;;5014778;28;20046;-75
2022/03/15 05:44:52;;;;;;;0.43;0.43;;;10.60;99.90;;;;;;5015121;28;20045;-76
2022/03/15 05:47:18;;;;;;;0.40;0.40;;;10.60;99.90;;;;;;5014681;28;20038;-76
2022/03/15 05:49:44;;;;;;;0.47;0.47;;;10.60;99.90;;;;;;5015229;28;20049;-76
2022/03/15 05:52:10;;;;;;;1.55;1.13;;;10.60;99.90;;;;;;5014765;28;20046;-76
2022/03/15 05:54:36;;;;;;;0.45;0.45;;;10.50;99.90;;;;;;5014712;28;20037;-76
2022/03/15 05:57:02;;;;;;;3.17;0.88;;;10.50;99.90;;;;;;5014770;28;20057;-76
2022/03/15 05:59:28;;;;;;;0.45;0.45;;;10.50;99.90;;;;;;5015035;28;20042;-76
2022/03/15 06:01:54;;;;;;;0.17;0.17;;;10.50;99.90;;;;;;5014842;28;20483;-76
2022/03/15 06:04:23;;;;;;;0.75;0.68;;;10.50;99.90;;;;;;5014657;28;20036;-76
2022/03/15 06:06:49;;;;;;;0.30;0.30;;;10.50;99.90;;;;;;5014861;28;20038;-76
2022/03/15 06:09:15;;;;;;;0.30;0.30;;;10.50;99.90;;;;;;5015290;28;20042;-76
2022/03/15 06:11:41;;;;;;;0.45;0.45;;;10.50;99.90;;;;;;5014859;28;20542;-76
2022/03/15 06:14:07;;;;;;;2.65;1.92;;;10.50;99.90;;;;;;5014817;28;20091;-75
2022/03/15 06:16:33;;;;;;;0.50;0.50;;;10.40;99.90;;;;;;5014380;28;20393;-76
2022/03/15 06:18:59;;;;;;;0.55;0.55;;;10.50;99.90;;;;;;5014516;28;20196;-75
2022/03/15 06:21:25;;;;;;;0.43;0.43;;;10.50;99.90;;;;;;5014861;28;20509;-76
2022/03/15 06:23:51;;;;;;;0.60;0.60;;;10.40;99.90;;;;;;5015129;28;20044;-76
2022/03/15 06:26:20;;;;;;;1.00;0.73;;;10.50;99.90;;;;;;5014520;28;20046;-76
2022/03/15 06:28:46;;;;;;;0.60;0.60;;;10.50;99.90;;;;;;5014399;28;20052;-76
2022/03/15 06:31:14;;;;;;;0.43;0.43;;;10.50;99.90;;;;;;5014269;28;20115;-75
2022/03/15 06:33:42;;;;;;;0.43;0.43;;;10.50;99.90;;;;;;5014780;28;20041;-75
2022/03/15 06:36:11;;;;;;;3.55;0.60;;;10.50;99.90;;;;;;5014729;28;20060;-75
2022/03/15 06:38:43;;;;;;;2.30;0.45;;;10.50;99.90;;;;;;5014866;28;20493;-75
2022/03/15 06:41:12;;;;;;;0.75;0.60;;;10.50;99.90;;;;;;5013310;28;20034;-76
2022/03/15 06:43:41;;;;;;;0.20;0.20;;;10.50;99.90;;;;;;5018082;28;20041;-76
2022/03/15 06:46:08;;;;;;;1.58;1.48;;;10.50;99.90;;;;;;5018116;28;20124;-76
2022/03/15 06:48:34;;;;;;;1.80;0.60;;;10.50;99.90;;;;;;5018236;28;20571;-76
2022/03/15 06:51:01;;;;;;;0.73;0.73;;;10.50;99.90;;;;;;5018223;28;20037;-76
2022/03/15 06:53:26;;;;;;;1.45;1.35;;;10.40;99.90;;;;;;5018402;28;20121;-76
2022/03/15 06:55:52;;;;;;;0.65;0.65;;;10.40;99.90;;;;;;5018351;28;20065;-76
2022/03/15 06:58:18;;;;;;;0.40;0.40;;;10.50;99.90;;;;;;5018861;28;20471;-76
2022/03/15 07:00:44;;;;;;;0.63;0.63;;;10.50;99.90;;;;;;5018202;28;20037;-76
2022/03/15 07:03:10;;;;;;;3.00;2.20;;;10.50;99.90;;;;;;5018265;28;20129;-76
2022/03/15 07:05:36;;;;;;;0.47;0.47;;;10.40;99.90;;;;;;5018313;28;20128;-76
2022/03/15 07:08:02;;;;;;;2.05;0.80;;;10.50;99.90;;;;;;5018223;28;20041;-76
2022/03/15 07:10:28;;;;;;;1.15;1.05;;;10.40;99.90;;;;;;5018299;28;20034;-75
2022/03/15 07:12:54;;;;;;;1.65;1.45;;;10.40;99.90;;;;;;5017949;28;20133;-76
2022/03/15 07:15:21;;;;;;;0.43;0.43;;;10.30;99.90;;;;;;5018297;28;20042;-76
2022/03/15 07:17:57;;;;;;;0.40;0.40;;;10.40;99.90;;;;;;5018796;28;20034;-76
2022/03/15 07:20:24;;;;;;;0.35;0.35;;;10.30;99.90;;;;;;5018306;28;20069;-75
2022/03/15 07:22:51;;;;;;;0.20;0.20;;;10.30;99.90;;;;;;5018108;28;20042;-76
2022/03/15 07:25:17;;;;;;;0.38;0.38;;;10.30;99.90;;;;;;5018009;28;20465;-76
2022/03/15 07:27:43;;;;;;;0.40;0.40;;;10.40;99.90;;;;;;5018046;28;20038;-76
2022/03/15 07:30:10;;;;;;;0.45;0.45;;;10.30;99.90;;;;;;5017572;28;20076;-76
2022/03/15 07:32:36;;;;;;;0.43;0.43;;;10.30;99.90;;;;;;5017340;28;20041;-76
2022/03/15 07:35:03;;;;;;;0.17;0.17;;;10.40;99.90;;;;;;5017951;28;20045;-75
2022/03/15 07:37:29;;;;;;;0.38;0.38;;;10.40;99.90;;;;;;5017654;28;20045;-76
2022/03/15 07:39:55;;;;;;;1.02;0.63;;;10.40;99.90;;;;;;5017798;28;20033;-76
2022/03/15 07:42:23;;;;;;;0.70;0.70;;;10.40;99.90;;;;;;5017567;28;20049;-76
2022/03/15 07:44:49;;;;;;;0.47;0.47;;;10.40;99.90;;;;;;5017932;28;20700;-76
2022/03/15 07:47:15;;;;;;;1.05;1.05;;;10.40;99.90;;;;;;5017582;28;20061;-76
2022/03/15 07:49:42;;;;;;;0.43;0.43;;;10.30;99.90;;;;;;5017807;28;20069;-76
2022/03/15 07:52:09;;;;;;;0.73;0.45;;;10.40;99.90;;;;;;5017959;28;20052;-75
2022/03/15 07:54:35;;;;;;;0.90;0.90;;;10.40;99.90;;;;;;5014865;28;20042;-75
2022/03/15 07:57:02;;;;;;;0.88;0.88;;;10.40;99.90;;;;;;4997922;28;20141;-75
2022/03/15 07:59:28;;;;;;;1.55;0.75;;;10.40;99.90;;;;;;4997692;28;20042;-74
2022/03/15 08:01:54;;;;;;;0.68;0.68;;;10.50;99.90;;;;;;4997579;28;20053;-74
2022/03/15 08:04:20;;;;;;;2.10;0.90;;;10.40;99.90;;;;;;4997523;28;20042;-75
2022/03/15 08:06:47;;;;;;;0.75;0.75;;;10.40;99.90;;;;;;4997773;28;20066;-75
2022/03/15 08:09:14;;;;;;;2.30;1.85;;;10.40;99.90;;;;;;4997480;28;20077;-75
2022/03/15 08:11:41;;;;;;;2.28;1.90;;;10.30;99.90;;;;;;4997188;28;20137;-74
2022/03/15 08:14:09;;;;;;;1.17;0.98;;;10.30;99.90;;;;;;4997348;28;20049;-74
2022/03/15 08:16:35;;;;;;;0.30;0.30;;;10.30;99.90;;;;;;4997310;28;20038;-74
2022/03/15 08:19:01;;;;;;;0.30;0.30;;;10.40;99.90;;;;;;4998249;28;20034;-75
2022/03/15 08:21:28;;;;;;;2.47;2.08;;;10.40;99.90;;;;;;4997333;28;20060;-74
2022/03/15 08:23:54;;;;;;;0.98;0.95;;;10.30;99.90;;;;;;4997480;28;20093;-74
2022/03/15 08:26:20;;;;;;;3.70;1.20;;;10.30;99.90;;;;;;4997454;28;20046;-75
2022/03/15 08:28:48;;;;;;;1.05;1.02;;;10.30;99.90;;;;;;4997250;28;20034;-74
2022/03/15 08:31:14;;;;;;;1.25;1.15;;;10.30;99.90;;;;;;4996928;28;20073;-75
2022/03/15 08:33:41;;;;;;;0.57;0.57;;;10.30;99.90;;;;;;4997002;28;20042;-74
2022/03/15 08:36:06;;;;;;;0.63;0.63;;;10.30;99.90;;;;;;4996975;28;20129;-74
2022/03/15 08:38:32;;;;;;;0.47;0.47;;;10.30;99.90;;;;;;4997168;28;20472;-74
2022/03/15 08:40:58;;;;;;;4.78;1.73;;;10.30;99.90;;;;;;4997345;28;20042;-74
2022/03/15 08:43:25;;;;;;;0.40;0.40;;;10.30;99.90;;;;;;4997034;28;20042;-74
2022/03/15 08:45:52;;;;;;;0.93;0.93;;;10.30;99.90;;;;;;4996847;28;20485;-74
2022/03/15 08:48:18;;;;;;;0.57;0.57;;;10.30;99.90;;;;;;4996901;28;20042;-74
2022/03/15 08:50:44;;;;;;;0.63;0.63;;;10.30;99.90;;;;;;4996622;28;20034;-74
2022/03/15 08:53:10;;;;;;;0.85;0.85;;;10.30;99.90;;;;;;4996863;28;20045;-74
2022/03/15 08:55:36;;;;;;;0.47;0.47;;;10.30;99.90;;;;;;4996558;28;20034;-73
2022/03/15 08:58:05;;;;;;;0.25;0.25;;;10.40;99.90;;;;;;4996551;28;20184;-74
2022/03/15 09:00:31;;;;;;;0.35;0.35;;;10.40;99.90;;;;;;4978367;28;20378;-74
2022/03/15 09:02:56;;;;;;;0.20;0.20;;;10.40;99.90;;;;;;4996179;28;20052;-74
2022/03/15 09:05:22;;;;;;;0.68;0.68;;;10.40;99.90;;;;;;4995684;28;20076;-74
2022/03/15 09:07:51;;;;;;;0.50;0.50;;;10.40;99.90;;;;;;4995357;28;20125;-73
2022/03/15 09:10:18;;;;;;;0.90;0.90;;;10.40;99.90;;;;;;4996298;28;20497;-74
2022/03/15 09:12:44;;;;;;;0.60;0.60;;;10.40;99.90;;;;;;4996474;28;20053;-74
2022/03/15 09:15:10;;;;;;;0.50;0.50;;;10.40;99.90;;;;;;4996031;28;20038;-74
2022/03/15 09:17:36;;;;;;;0.30;0.30;;;10.50;99.90;;;;;;4996040;28;20049;-74
2022/03/15 09:20:03;;;;;;;0.57;0.57;;;10.40;99.90;;;;;;4995782;28;20093;-74
2022/03/15 09:22:29;;;;;;;0.20;0.20;;;10.40;99.90;;;;;;4996114;28;20108;-74
2022/03/15 09:24:56;;;;;;;0.15;0.15;;;10.40;99.90;;;;;;4995636;28;20583;-74
2022/03/15 09:27:22;;;;;;;0.50;0.50;;;10.40;99.90;;;;;;4996243;28;20034;-74
2022/03/15 09:29:48;;;;;;;0.30;0.30;;;10.40;99.90;;;;;;4995919;28;20396;-74
2022/03/15 09:32:15;;;;;;;0.55;0.55;;;10.40;99.90;;;;;;4996476;28;20046;-74
2022/03/15 09:34:43;;;;;;;0.32;0.25;;;10.40;99.90;;;;;;4995471;28;20516;-74
2022/03/15 09:37:09;;;;;;;0.60;0.30;;;10.40;99.90;;;;;;4995481;28;20030;-74
2022/03/15 09:39:35;;;;;;;0.10;0.10;;;10.40;99.90;;;;;;4995472;28;20441;-74
2022/03/15 09:42:06;;;;;;;0.50;0.50;;;10.40;99.90;;;;;;4996040;28;20095;-74
2022/03/15 09:44:34;;;;;;;0.65;0.65;;;10.40;99.90;;;;;;4995574;28;20046;-74
2022/03/15 09:47:03;;;;;;;0.52;0.52;;;10.40;99.90;;;;;;4995460;28;20084;-74
2022/03/15 09:49:31;;;;;;;0.85;0.80;;;10.40;99.90;;;;;;4996159;28;20046;-74
2022/03/15 09:51:57;;;;;;;0.70;0.70;;;10.40;99.90;;;;;;4995818;28;20049;-74
2022/03/15 09:54:25;;;;;;;0.32;0.32;;;10.40;99.90;;;;;;4995373;28;20069;-74
2022/03/15 09:56:51;;;;;;;0.82;0.82;;;10.40;99.90;;;;;;4995153;28;20108;-74
2022/03/15 09:59:20;;;;;;;0.20;0.20;;;10.40;99.90;;;;;;4995440;28;20042;-74
2022/03/15 10:01:51;;;;;;;0.70;0.70;;;10.40;99.90;;;;;;4995401;28;20069;-74
2022/03/15 10:04:18;;;;;;;0.60;0.60;;;10.30;99.90;;;;;;4995719;28;20042;-74
2022/03/15 10:06:44;;;;;;;0.75;0.75;;;10.30;99.90;;;;;;4995361;28;20473;-74
2022/03/15 10:09:11;;;;;;;0.40;0.40;;;10.30;99.90;;;;;;4995268;28;20080;-74
2022/03/15 10:11:37;;;;;;;0.85;0.82;;;10.30;1.00;;;;;;4994892;28;20133;-74
2022/03/15 10:14:07;;;;;;;0.95;0.85;;;10.40;99.90;;;;;;4995543;28;20381;-74
2022/03/15 10:16:40;;;;;;;0.40;0.40;;;10.30;99.90;;;;;;4995250;28;20050;-74
2022/03/15 10:19:08;;;;;;;0.50;0.50;;;10.30;99.90;;;;;;4995180;28;20551;-74
2022/03/15 10:21:55;;;;;;;0.68;0.68;;;10.30;10.90;;;;;;4995279;28;20061;-74
2022/03/15 10:24:24;;;;;;;2.97;1.08;;;10.30;99.90;;;;;;4995111;28;20572;-74
2022/03/15 10:26:55;;;;;;;4.03;1.70;;;10.30;99.90;;;;;;4995344;28;20078;-74
2022/03/15 10:29:22;;;;;;;0.90;0.68;;;10.30;99.90;;;;;;4995984;28;20041;-74
2022/03/15 10:31:48;;;;;;;0.88;0.88;;;10.30;99.90;;;;;;4995294;28;20532;-74
2022/03/15 10:34:16;;;;;;;0.40;0.40;;;10.30;99.90;;;;;;4994932;28;20038;-74
2022/03/15 10:36:51;;;;;;;0.80;0.80;;;10.30;99.90;;;;;;4977859;28;20413;-74
2022/03/15 10:39:19;;;;;;;1.90;1.55;;;10.40;99.90;;;;;;4995001;28;20038;-74
2022/03/15 10:41:54;;;;;;;0.57;0.57;;;10.30;99.90;;;;;;4995373;28;20054;-74
2022/03/15 10:44:23;;;;;;;5.50;1.88;;;10.40;99.90;;;;;;4994976;28;20050;-74
2022/03/15 10:47:01;;;;;;;0.57;0.57;;;10.40;99.90;;;;;;4994971;28;20042;-74
2022/03/15 10:49:28;;;;;;;0.40;0.40;;;10.40;99.90;;;;;;4994810;28;20035;-74
2022/03/15 10:51:54;;;;;;;0.70;0.70;;;10.30;99.90;;;;;;4995125;28;20084;-74
2022/03/15 10:54:26;;;;;;;0.20;0.20;;;10.30;99.90;;;;;;4995062;28;20046;-74
2022/03/15 10:56:57;;;;;;;0.85;0.85;;;10.30;99.90;;;;;;4995477;28;20461;-74
2022/03/15 10:59:24;;;;;;;1.05;0.95;;;10.30;99.90;;;;;;4995176;28;20045;-74
2022/03/15 11:01:50;;;;;;;0.70;0.70;;;10.30;99.90;;;;;;4994908;28;20069;-74
2022/03/15 11:04:17;;;;;;;1.20;0.95;;;10.30;99.90;;;;;;4994926;28;20128;-74
2022/03/15 11:06:48;;;;;;;2.55;1.55;;;10.30;99.90;;;;;;4994424;28;20117;-74
2022/03/15 11:09:27;;;;;;;0.73;0.73;;;10.30;99.90;;;;;;4995341;28;20097;-74
2022/03/15 11:12:01;;;;;;;0.93;0.88;;;10.30;99.90;;;;;;4994824;28;20118;-74
2022/03/15 11:14:46;;;;;;;3.75;0.93;;;10.30;99.90;;;;;;4994713;28;20053;-74
2022/03/15 11:17:18;;;;;;;1.45;0.90;;;10.30;99.90;;;;;;4994630;28;20031;-74
2022/03/15 11:19:49;;;;;;;0.60;0.60;;;10.30;99.90;;;;;;4994706;28;20047;-74
2022/03/15 11:22:20;;;;;;;0.30;0.30;;;10.30;1.00;;;;;;4995215;28;20064;-74
2022/03/15 11:24:58;;;;;;;1.08;0.93;;;10.40;99.90;;;;;;4994823;28;20046;-74
2022/03/15 11:27:26;;;;;;;1.55;1.45;;;10.30;99.90;;;;;;4994016;28;20034;-74
2022/03/15 11:29:56;;;;;;;0.65;0.65;;;10.30;99.90;;;;;;4998290;28;20050;-74
2022/03/15 11:32:23;;;;;;;0.68;0.38;;;10.40;99.90;;;;;;4997286;28;20034;-74
2022/03/15 11:34:50;;;;;;;1.65;0.55;;;10.40;99.90;;;;;;4998089;28;20084;-74
2022/03/15 11:37:16;;;;;;;1.65;1.23;;;10.40;99.90;;;;;;4980614;28;20494;-74
2022/03/15 11:39:42;;;;;;;2.72;1.38;;;10.40;99.90;;;;;;4998029;28;20041;-74
2022/03/15 11:42:16;;;;;;;0.40;0.40;;;10.40;99.90;;;;;;4997846;28;20039;-74
2022/03/15 11:45:12;;;;;;;0.43;0.43;;;10.40;99.90;;;;;;4998611;28;20042;-74
2022/03/15 11:47:50;;;;;;;7.15;1.73;;;10.40;99.90;;;;;;4998228;28;20034;-74
2022/03/15 11:50:32;;;;;;;1.10;1.00;;;10.40;99.90;;;;;;4997220;28;20065;-74
2022/03/15 11:53:08;;;;;;;7.22;1.02;;;10.40;99.90;;;;;;4998000;28;20046;-74
2022/03/15 11:55:52;;;;;;;0.60;0.60;;;10.30;99.90;;;;;;4997683;28;20053;-74
2022/03/15 11:58:29;;;;;;;1.10;0.75;;;10.40;99.90;;;;;;4997984;28;20036;-74
2022/03/15 12:01:09;;;;;;;0.50;0.50;;;10.40;99.90;;;;;;4997416;28;20112;-74
2022/03/15 12:03:53;;;;;;;0.88;0.88;;;10.40;1.00;;;;;;4997369;28;20089;-74
2022/03/15 12:06:28;;;;;;;0.38;0.38;;;10.30;1.00;;;;;;4997199;28;20101;-74
2022/03/15 12:08:57;;;;;;;0.88;0.85;;;10.40;99.90;;;;;;4997424;28;20045;-76
2022/03/15 12:11:34;;;;;;;0.32;0.32;;;10.30;1.00;;;;;;4993207;28;20084;-74
2022/03/15 12:14:08;;;;;;;7.38;1.65;;;10.40;99.90;;;;;;4996637;28;20065;-74
2022/03/15 12:16:48;;;;;;;0.30;0.30;;;10.40;99.90;;;;;;4996601;28;20038;-74
2022/03/15 12:19:39;;;;;;;1.60;1.50;;;10.40;1.00;;;;;;4996162;28;20062;-74
2022/03/15 12:22:09;;;;;;;0.75;0.75;;;10.40;99.90;;;;;;4996232;28;20477;-75
2022/03/15 12:24:45;;;;;;;0.45;0.45;;;10.40;99.90;;;;;;4996352;28;20042;-75
2022/03/15 12:27:20;;;;;;;10.93;1.67;;;10.40;99.90;;;;;;4996322;28;20449;-74
2022/03/15 12:29:54;;;;;;;0.30;0.30;;;10.40;99.90;;;;;;4995938;28;20496;-74
2022/03/15 12:32:20;;;;;;;0.68;0.68;;;10.40;99.90;;;;;;4996033;28;20050;-74
2022/03/15 12:34:55;;;;;;;1.48;1.08;;;10.40;99.90;;;;;;4996490;28;20125;-74
2022/03/15 12:37:32;;;;;;;1.15;0.95;;;10.40;99.90;;;;;;4995017;28;20057;-74
2022/03/15 12:40:00;;;;;;;0.77;0.77;;;10.40;99.90;;;;;;4995207;28;20041;-74
2022/03/15 12:42:27;;;;;;;0.82;0.75;;;10.40;1.00;;;;;;4996351;28;20129;-74
2022/03/15 12:45:01;;;;;;;0.38;0.38;;;10.40;1.00;;;;;;4996403;28;20046;-74
2022/03/15 12:47:31;;;;;;;0.73;0.73;;;10.40;99.90;;;;;;4978595;28;20049;-74
2022/03/15 12:50:18;;;;;;;1.05;0.90;;;10.40;1.00;;;;;;4995818;28;20046;-74
2022/03/15 12:52:59;;;;;;;3.40;1.50;;;10.40;99.90;;;;;;4995801;28;20070;-74
2022/03/15 12:55:30;;;;;;;1.15;1.05;;;10.50;99.90;;;;;;4995888;28;20152;-74